Ns Point — A8LV3 — position and weather

sailwx.info

Track history (hours):
 
Tides and Currents Weather Stations Pressure Air Temp Water Temp Dewpoint Dewpoint Depression Visibility Wind Speed Wind Dir Waves Ship Positions

Ns Point

Last reported at 2017-Nov-18 16:33 UTC. Time now 2017-Nov-25 09:47 UTC.
Position N 40°26' W 073°41'.

Length 176 m; draft 7.1 m.

Type: Tanker. MMSI: 636013276.

Date/timePositionNaut miles runAvg speedWind from/ knotsBaromVisibWave heightAir tempDewpointWater temp
2017-Nov-18 16:33N 40°26' W 073°41'1 9.0
2017-Nov-18 16:25N 40°26' W 073°42'4 9.9
2017-Nov-18 15:59N 40°27' W 073°48'14 9.1
2017-Nov-18 14:30N 40°35' W 074°02'4 8.4
2017-Nov-18 14:00N 40°39' W 074°04'3 5.9
2017-Nov-18 13:30N 40°39' W 074°08'3 6.4
2017-Nov-18 13:00N 40°38' W 074°12'2 3.6
2017-Nov-18 12:30N 40°36' W 074°12'0 0.0
2017-Nov-18 11:54N 40°36' W 074°12'0 0.0
2017-Nov-18 11:30N 40°36' W 074°12'0 0.0
2017-Nov-18 11:00N 40°36' W 074°12'0 0.0
2017-Nov-18 10:30N 40°36' W 074°12'0 0.0
2017-Nov-18 10:00N 40°36' W 074°12'0 0.0
2017-Nov-18 09:21N 40°36' W 074°12'0 0.0
2017-Nov-18 09:00N 40°36' W 074°12'0 0.0
2017-Nov-18 08:30N 40°36' W 074°12'0 0.0
2017-Nov-18 08:00N 40°36' W 074°12'0 0.0
2017-Nov-18 07:30N 40°36' W 074°12'0 0.0
2017-Nov-18 07:00N 40°36' W 074°12'0 0.0
2017-Nov-18 06:30N 40°36' W 074°12'0 0.0
2017-Nov-18 06:00N 40°36' W 074°12'0 0.0
2017-Nov-18 05:30N 40°36' W 074°12'0 0.0
2017-Nov-18 04:54N 40°36' W 074°12'0 0.0
2017-Nov-18 04:30N 40°36' W 074°12'0 0.0
2017-Nov-18 03:54N 40°36' W 074°12'0 0.0
2017-Nov-18 03:30N 40°36' W 074°12'0 0.0
2017-Nov-18 02:54N 40°36' W 074°12'0 0.0
2017-Nov-18 02:30N 40°36' W 074°12'0 0.0
2017-Nov-18 01:42N 40°36' W 074°12'0 0.0
2017-Nov-18 01:30N 40°36' W 074°12'0 0.0
2017-Nov-18 01:00N 40°36' W 074°12'0 0.0
2017-Nov-18 00:18N 40°36' W 074°12'0 0.0
2017-Nov-18 00:00N 40°36' W 074°12'0 0.0
2017-Nov-17 23:30N 40°36' W 074°12'0 0.0
2017-Nov-17 22:54N 40°36' W 074°12'0 0.0
2017-Nov-17 22:30N 40°36' W 074°12'0 0.0
2017-Nov-17 21:03N 40°36' W 074°12'0 0.0
2017-Nov-17 20:54N 40°36' W 074°12'0 0.0
2017-Nov-17 19:42N 40°36' W 074°12'0 0.0
2017-Nov-17 19:24N 40°36' W 074°12'0 0.0
2017-Nov-17 18:30N 40°36' W 074°12'0 0.0
2017-Nov-17 18:00N 40°36' W 074°12'0 0.0
2017-Nov-17 17:18N 40°36' W 074°12'0 0.0
2017-Nov-17 16:48N 40°36' W 074°12'0 0.0
2017-Nov-17 15:30N 40°36' W 074°12'0 0.0
2017-Nov-17 14:24N 40°36' W 074°12'0 0.0
2017-Nov-17 13:48N 40°36' W 074°12'0 0.0
2017-Nov-17 13:30N 40°36' W 074°12'0 0.0
2017-Nov-17 12:54N 40°36' W 074°12'0 0.0
2017-Nov-17 12:30N 40°36' W 074°12'0 0.0
2017-Nov-17 11:54N 40°36' W 074°12'0 0.0
2017-Nov-17 11:24N 40°36' W 074°12'0 0.0
2017-Nov-17 11:00N 40°36' W 074°12'0 0.0
2017-Nov-17 10:30N 40°36' W 074°12'0 0.0
2017-Nov-17 09:54N 40°36' W 074°12'0 0.0
2017-Nov-17 09:30N 40°36' W 074°12'0 0.0
2017-Nov-17 08:54N 40°36' W 074°12'0 0.0
2017-Nov-17 08:30N 40°36' W 074°12'0 0.0
2017-Nov-17 08:00N 40°36' W 074°12'0 0.0
2017-Nov-17 07:30N 40°36' W 074°12'0 0.0
2017-Nov-17 06:54N 40°36' W 074°12'0 0.0
2017-Nov-17 06:30N 40°36' W 074°12'0 0.0
2017-Nov-17 05:54N 40°36' W 074°12'0 0.0
2017-Nov-17 05:30N 40°36' W 074°12'0 0.0
2017-Nov-17 05:00N 40°36' W 074°12'0 0.0
2017-Nov-17 04:30N 40°36' W 074°12'0 0.0
2017-Nov-17 04:00N 40°36' W 074°12'0 0.0
2017-Nov-17 03:30N 40°36' W 074°12'0 0.0
2017-Nov-17 03:00N 40°36' W 074°12'0 0.0
2017-Nov-17 02:30N 40°36' W 074°12'0 0.0
2017-Nov-17 02:00N 40°36' W 074°12'0 0.0
2017-Nov-17 01:30N 40°36' W 074°12'0 0.0
2017-Nov-17 01:00N 40°36' W 074°12'0 0.0
2017-Nov-17 00:18N 40°36' W 074°12'0 0.0
2017-Nov-16 23:54N 40°36' W 074°12'0 0.0
2017-Nov-16 21:21N 40°36' W 074°12'0 0.0
2017-Nov-16 20:54N 40°36' W 074°12'0 0.0
2017-Nov-16 20:15N 40°36' W 074°12'0 0.0
2017-Nov-16 19:57N 40°36' W 074°12'0 0.0
2017-Nov-16 19:30N 40°36' W 074°12'0 0.0
2017-Nov-16 18:42N 40°36' W 074°12'0 0.0
2017-Nov-16 18:18N 40°36' W 074°12'0 0.0
2017-Nov-16 17:45N 40°36' W 074°12'0 0.0
2017-Nov-16 17:24N 40°36' W 074°12'0 0.0
2017-Nov-16 11:30N 40°36' W 074°12'0 0.0
2017-Nov-16 11:00N 40°36' W 074°12'0 0.0
2017-Nov-16 10:30N 40°36' W 074°12'0 0.0
2017-Nov-16 06:09N 40°36' W 074°12'0 0.0
2017-Nov-16 05:54N 40°36' W 074°12'0 0.0
2017-Nov-16 05:30N 40°36' W 074°12'0 0.0
2017-Nov-16 05:00N 40°36' W 074°12'0 0.0
2017-Nov-16 04:30N 40°36' W 074°12'0 0.0
2017-Nov-16 04:00N 40°36' W 074°12'0 0.0
2017-Nov-16 03:30N 40°36' W 074°12'0 0.0
2017-Nov-16 03:00N 40°36' W 074°12'0 0.0
2017-Nov-16 02:30N 40°36' W 074°12'0 0.0
2017-Nov-16 02:00N 40°36' W 074°12'2 3.4
2017-Nov-16 01:31N 40°35' W 074°13'3 5.7
2017-Nov-16 00:59N 40°33' W 074°15'4 3.6
2017-Nov-15 23:55N 40°30' W 074°11'4 9.4
2017-Nov-15 23:30N 40°29' W 074°06'5 9.3
2017-Nov-15 22:59N 40°29' W 073°60'610.0
2017-Nov-15 22:21N 40°27' W 073°52'2 6.0
2017-Nov-15 22:00N 40°27' W 073°49'3 6.1
2017-Nov-15 21:29N 40°27' W 073°45'510.3
2017-Nov-15 21:00N 40°28' W 073°39'1 0.9
2017-Nov-15 19:38N 40°29' W 073°38'0 0.0
2017-Nov-15 18:32N 40°29' W 073°38'0 0.0
2017-Nov-15 14:35N 40°29' W 073°38'0 0.1
2017-Nov-15 14:20N 40°29' W 073°38'0 0.0
2017-Nov-15 13:59N 40°29' W 073°38'0 0.0
2017-Nov-15 12:41N 40°29' W 073°38'0 0.0
2017-Nov-15 08:38N 40°29' W 073°38'0 0.0
2017-Nov-15 08:23N 40°29' W 073°38'0 0.1
2017-Nov-15 07:56N 40°29' W 073°38'0 0.0
2017-Nov-15 07:29N 40°29' W 073°38'0 0.0
2017-Nov-15 06:50N 40°29' W 073°38'0 0.0
2017-Nov-15 06:29N 40°29' W 073°38'0 0.0
2017-Nov-15 05:56N 40°29' W 073°38'0 0.0
2017-Nov-15 04:02N 40°29' W 073°38'0 0.3
2017-Nov-15 03:59N 40°29' W 073°38'0 0.0
2017-Nov-15 03:29N 40°29' W 073°38'0 0.0
2017-Nov-15 02:44N 40°29' W 073°38'0 0.0
2017-Nov-15 01:47N 40°29' W 073°38'0 0.0
2017-Nov-15 01:11N 40°29' W 073°38'0 0.0
2017-Nov-15 00:47N 40°29' W 073°38'0 0.0
2017-Nov-15 00:20N 40°29' W 073°38'0 0.0
2017-Nov-14 22:41N 40°29' W 073°38'0 0.0
2017-Nov-14 19:29N 40°29' W 073°38'0 0.0
2017-Nov-14 14:59N 40°29' W 073°38'0 0.0
2017-Nov-14 10:17N 40°29' W 073°38'0 0.0
2017-Nov-14 09:47N 40°29' W 073°38'0 0.0
2017-Nov-14 09:29N 40°29' W 073°38'0 0.0
2017-Nov-14 05:11N 40°29' W 073°38'0 0.0
2017-Nov-14 04:35N 40°29' W 073°38'0 0.0
2017-Nov-14 04:05N 40°29' W 073°38'0 0.0
2017-Nov-14 03:17N 40°29' W 073°38'0 0.0
2017-Nov-14 02:47N 40°29' W 073°38'0 0.0
2017-Nov-14 02:29N 40°29' W 073°38'0 0.0
2017-Nov-13 01:53N 40°29' W 073°37'0 0.0
2017-Nov-12 19:56N 40°29' W 073°38'0 0.2
2017-Nov-12 19:30N 40°29' W 073°38'3 7.0
2017-Nov-12 19:00N 40°29' W 073°42'510.6
2017-Nov-12 18:30N 40°27' W 073°49'5 9.0
2017-Nov-12 18:00N 40°29' W 073°55'510.6
2017-Nov-12 17:30N 40°32' W 074°01'4 8.8
2017-Nov-12 17:00N 40°36' W 074°02'0 0.3
2017-Nov-12 16:28N 40°36' W 074°02'0 0.0
2017-Nov-12 15:55N 40°36' W 074°02'0 0.0
2017-Nov-12 15:28N 40°36' W 074°02'0 0.0
2017-Nov-12 14:58N 40°36' W 074°02'0 0.0
2017-Nov-12 14:28N 40°36' W 074°02'0 0.0
2017-Nov-12 13:58N 40°36' W 074°02'0 0.0
2017-Nov-12 13:28N 40°36' W 074°02'0 0.0
2017-Nov-12 12:58N 40°36' W 074°02'0 0.0
2017-Nov-12 12:28N 40°36' W 074°02'0 0.0
2017-Nov-12 11:58N 40°36' W 074°02'0 0.0
2017-Nov-12 11:28N 40°36' W 074°02'0 0.0
2017-Nov-12 10:55N 40°36' W 074°02'0 0.1
2017-Nov-12 10:28N 40°36' W 074°02'0 0.1
2017-Nov-12 09:58N 40°36' W 074°02'0 0.2
2017-Nov-12 09:28N 40°36' W 074°02'0 0.2
2017-Nov-12 08:58N 40°36' W 074°02'0 0.1
2017-Nov-12 08:28N 40°36' W 074°02'0 0.0
2017-Nov-12 07:55N 40°36' W 074°02'0 0.0
2017-Nov-12 07:28N 40°36' W 074°02'0 0.1
2017-Nov-12 06:58N 40°36' W 074°02'0 0.0
2017-Nov-12 06:28N 40°36' W 074°02'0 0.0
2017-Nov-12 05:58N 40°36' W 074°02'1 2.3
2017-Nov-12 05:31N 40°35' W 074°02'5 9.9
2017-Nov-12 05:00N 40°30' W 074°03'4 8.0
2017-Nov-12 04:30N 40°30' W 074°08'6 7.6
2017-Nov-12 03:45N 40°31' W 074°15'1 5.4
2017-Nov-12 03:30N 40°32' W 074°15'1 0.0
2017-Nov-11 02:16N 40°33' W 074°15'5 3.5
2017-Nov-11 00:51N 40°30' W 074°09'4 8.5
2017-Nov-11 00:26N 40°29' W 074°05'4 9.9
2017-Nov-11 00:00N 40°29' W 073°59'4 7.4
2017-Nov-10 23:25N 40°29' W 073°54'513.2
2017-Nov-10 23:01N 40°31' W 073°60'714.1
2017-Nov-10 22:30N 40°38' W 074°03'1 1.8
2017-Nov-10 21:58N 40°39' W 074°03'0 0.0
2017-Nov-10 21:28N 40°39' W 074°03'0 0.0
2017-Nov-10 20:58N 40°39' W 074°03'0 0.0
2017-Nov-10 20:28N 40°39' W 074°03'0 0.0
2017-Nov-10 19:58N 40°39' W 074°03'0 0.1
2017-Nov-10 19:28N 40°39' W 074°03'1 2.5
2017-Nov-10 19:00N 40°39' W 074°04'4 7.3
2017-Nov-10 18:30N 40°39' W 074°09'3 5.1
2017-Nov-10 18:00N 40°38' W 074°12'2 1.9
2017-Nov-10 17:07N 40°36' W 074°12'0 0.0
2017-Nov-10 16:43N 40°36' W 074°12'0 0.0
2017-Nov-10 16:25N 40°36' W 074°12'0 0.0
2017-Nov-10 15:49N 40°36' W 074°12'0 0.0
2017-Nov-10 15:25N 40°36' W 074°12'0 0.0
2017-Nov-10 14:55N 40°36' W 074°12'0 0.0
2017-Nov-10 14:25N 40°36' W 074°12'0 0.0
2017-Nov-10 13:49N 40°36' W 074°12'0 0.0
2017-Nov-10 13:13N 40°36' W 074°12'0 0.0
2017-Nov-10 11:43N 40°36' W 074°12'0 0.0
2017-Nov-10 11:19N 40°36' W 074°12'0 0.0
2017-Nov-10 08:49N 40°36' W 074°12'0 0.0
2017-Nov-10 03:13N 40°36' W 074°12'0 0.0
2017-Nov-10 02:55N 40°36' W 074°12'0 0.0
2017-Nov-10 02:13N 40°36' W 074°12'0 0.0
2017-Nov-10 01:55N 40°36' W 074°12'0 0.0
2017-Nov-10 00:31N 40°36' W 074°12'0 0.0
2017-Nov-09 14:19N 40°36' W 074°12'0 0.0
2017-Nov-09 13:55N 40°36' W 074°12'0 0.9
2017-Nov-09 13:30N 40°36' W 074°12'2 4.6
2017-Nov-09 12:59N 40°33' W 074°14'1 2.0
2017-Nov-09 12:31N 40°34' W 074°13'3 5.3
2017-Nov-09 12:00N 40°37' W 074°12'3 5.5
2017-Nov-09 11:31N 40°39' W 074°10'3 6.1
2017-Nov-09 11:01N 40°39' W 074°06'1 0.4
2017-Nov-09 08:52N 40°39' W 074°05'0 0.0
2017-Nov-09 08:28N 40°39' W 074°05'0 0.0
2017-Nov-09 07:46N 40°39' W 074°05'0 0.0
2017-Nov-09 07:19N 40°39' W 074°05'0 0.0
2017-Nov-09 06:58N 40°39' W 074°05'0 0.0
2017-Nov-09 06:28N 40°39' W 074°05'0 0.0
2017-Nov-09 05:58N 40°39' W 074°05'0 0.0
2017-Nov-09 05:28N 40°39' W 074°05'0 0.0
2017-Nov-09 04:58N 40°39' W 074°05'0 0.0
2017-Nov-09 04:10N 40°39' W 074°05'0 0.0
2017-Nov-09 03:58N 40°39' W 074°05'0 0.0
2017-Nov-09 03:28N 40°39' W 074°05'0 0.0
2017-Nov-09 02:58N 40°39' W 074°05'0 0.0
2017-Nov-09 02:22N 40°39' W 074°05'0 0.0
2017-Nov-09 01:58N 40°39' W 074°05'0 0.0
2017-Nov-09 01:10N 40°39' W 074°05'0 0.0
2017-Nov-09 00:52N 40°39' W 074°05'0 0.0
2017-Nov-09 00:28N 40°39' W 074°05'0 0.0
2017-Nov-08 23:52N 40°39' W 074°05'0 0.0
2017-Nov-08 23:22N 40°39' W 074°05'0 0.0
2017-Nov-08 22:58N 40°39' W 074°05'0 0.0
2017-Nov-08 22:25N 40°39' W 074°05'0 0.0
2017-Nov-08 21:58N 40°39' W 074°05'0 0.0
2017-Nov-08 21:28N 40°39' W 074°05'0 0.0
2017-Nov-08 20:58N 40°39' W 074°05'0 0.0
2017-Nov-08 20:28N 40°39' W 074°05'0 0.0
2017-Nov-08 19:43N 40°39' W 074°05'0 0.0
2017-Nov-08 19:28N 40°39' W 074°05'0 0.0
2017-Nov-08 18:58N 40°39' W 074°05'0 0.0
2017-Nov-08 18:22N 40°39' W 074°05'0 0.0
2017-Nov-08 17:58N 40°39' W 074°05'0 0.0
2017-Nov-08 17:28N 40°39' W 074°05'0 0.0
2017-Nov-08 16:58N 40°39' W 074°05'  
Track history (hours):
 
Tides and Currents Weather Stations Pressure Air Temp Water Temp Dewpoint Dewpoint Depression Visibility Wind Speed Wind Dir Waves Ship Positions

Ns Point

Last reported at 2017-Nov-18 16:33 UTC. Time now 2017-Nov-25 09:47 UTC.
Position N 40°26' W 073°41'.

Length 176 m; draft 7.1 m.

Type: Tanker. MMSI: 636013276.

Date/timePositionNaut miles runAvg speedWind from/ knotsBaromVisibWave heightAir tempDewpointWater temp
2017-Nov-18 16:33N 40°26' W 073°41'1 9.0
2017-Nov-18 16:25N 40°26' W 073°42'4 9.9
2017-Nov-18 15:59N 40°27' W 073°48'14 9.1
2017-Nov-18 14:30N 40°35' W 074°02'4 8.4
2017-Nov-18 14:00N 40°39' W 074°04'3 5.9
2017-Nov-18 13:30N 40°39' W 074°08'3 6.4
2017-Nov-18 13:00N 40°38' W 074°12'2 3.6
2017-Nov-18 12:30N 40°36' W 074°12'0 0.0
2017-Nov-18 11:54N 40°36' W 074°12'0 0.0
2017-Nov-18 11:30N 40°36' W 074°12'0 0.0
2017-Nov-18 11:00N 40°36' W 074°12'0 0.0
2017-Nov-18 10:30N 40°36' W 074°12'0 0.0
2017-Nov-18 10:00N 40°36' W 074°12'0 0.0
2017-Nov-18 09:21N 40°36' W 074°12'0 0.0
2017-Nov-18 09:00N 40°36' W 074°12'0 0.0
2017-Nov-18 08:30N 40°36' W 074°12'0 0.0
2017-Nov-18 08:00N 40°36' W 074°12'0 0.0
2017-Nov-18 07:30N 40°36' W 074°12'0 0.0
2017-Nov-18 07:00N 40°36' W 074°12'0 0.0
2017-Nov-18 06:30N 40°36' W 074°12'0 0.0
2017-Nov-18 06:00N 40°36' W 074°12'0 0.0
2017-Nov-18 05:30N 40°36' W 074°12'0 0.0
2017-Nov-18 04:54N 40°36' W 074°12'0 0.0
2017-Nov-18 04:30N 40°36' W 074°12'0 0.0
2017-Nov-18 03:54N 40°36' W 074°12'0 0.0
2017-Nov-18 03:30N 40°36' W 074°12'0 0.0
2017-Nov-18 02:54N 40°36' W 074°12'0 0.0
2017-Nov-18 02:30N 40°36' W 074°12'0 0.0
2017-Nov-18 01:42N 40°36' W 074°12'0 0.0
2017-Nov-18 01:30N 40°36' W 074°12'0 0.0
2017-Nov-18 01:00N 40°36' W 074°12'0 0.0
2017-Nov-18 00:18N 40°36' W 074°12'0 0.0
2017-Nov-18 00:00N 40°36' W 074°12'0 0.0
2017-Nov-17 23:30N 40°36' W 074°12'0 0.0
2017-Nov-17 22:54N 40°36' W 074°12'0 0.0
2017-Nov-17 22:30N 40°36' W 074°12'0 0.0
2017-Nov-17 21:03N 40°36' W 074°12'0 0.0
2017-Nov-17 20:54N 40°36' W 074°12'0 0.0
2017-Nov-17 19:42N 40°36' W 074°12'0 0.0
2017-Nov-17 19:24N 40°36' W 074°12'0 0.0
2017-Nov-17 18:30N 40°36' W 074°12'0 0.0
2017-Nov-17 18:00N 40°36' W 074°12'0 0.0
2017-Nov-17 17:18N 40°36' W 074°12'0 0.0
2017-Nov-17 16:48N 40°36' W 074°12'0 0.0
2017-Nov-17 15:30N 40°36' W 074°12'0 0.0
2017-Nov-17 14:24N 40°36' W 074°12'0 0.0
2017-Nov-17 13:48N 40°36' W 074°12'0 0.0
2017-Nov-17 13:30N 40°36' W 074°12'0 0.0
2017-Nov-17 12:54N 40°36' W 074°12'0 0.0
2017-Nov-17 12:30N 40°36' W 074°12'0 0.0
2017-Nov-17 11:54N 40°36' W 074°12'0 0.0
2017-Nov-17 11:24N 40°36' W 074°12'0 0.0
2017-Nov-17 11:00N 40°36' W 074°12'0 0.0
2017-Nov-17 10:30N 40°36' W 074°12'0 0.0
2017-Nov-17 09:54N 40°36' W 074°12'0 0.0
2017-Nov-17 09:30N 40°36' W 074°12'0 0.0
2017-Nov-17 08:54N 40°36' W 074°12'0 0.0
2017-Nov-17 08:30N 40°36' W 074°12'0 0.0
2017-Nov-17 08:00N 40°36' W 074°12'0 0.0
2017-Nov-17 07:30N 40°36' W 074°12'0 0.0
2017-Nov-17 06:54N 40°36' W 074°12'0 0.0
2017-Nov-17 06:30N 40°36' W 074°12'0 0.0
2017-Nov-17 05:54N 40°36' W 074°12'0 0.0
2017-Nov-17 05:30N 40°36' W 074°12'0 0.0
2017-Nov-17 05:00N 40°36' W 074°12'0 0.0
2017-Nov-17 04:30N 40°36' W 074°12'0 0.0
2017-Nov-17 04:00N 40°36' W 074°12'0 0.0
2017-Nov-17 03:30N 40°36' W 074°12'0 0.0
2017-Nov-17 03:00N 40°36' W 074°12'0 0.0
2017-Nov-17 02:30N 40°36' W 074°12'0 0.0
2017-Nov-17 02:00N 40°36' W 074°12'0 0.0
2017-Nov-17 01:30N 40°36' W 074°12'0 0.0
2017-Nov-17 01:00N 40°36' W 074°12'0 0.0
2017-Nov-17 00:18N 40°36' W 074°12'0 0.0
2017-Nov-16 23:54N 40°36' W 074°12'0 0.0
2017-Nov-16 21:21N 40°36' W 074°12'0 0.0
2017-Nov-16 20:54N 40°36' W 074°12'0 0.0
2017-Nov-16 20:15N 40°36' W 074°12'0 0.0
2017-Nov-16 19:57N 40°36' W 074°12'0 0.0
2017-Nov-16 19:30N 40°36' W 074°12'0 0.0
2017-Nov-16 18:42N 40°36' W 074°12'0 0.0
2017-Nov-16 18:18N 40°36' W 074°12'0 0.0
2017-Nov-16 17:45N 40°36' W 074°12'0 0.0
2017-Nov-16 17:24N 40°36' W 074°12'0 0.0
2017-Nov-16 11:30N 40°36' W 074°12'0 0.0
2017-Nov-16 11:00N 40°36' W 074°12'0 0.0
2017-Nov-16 10:30N 40°36' W 074°12'0 0.0
2017-Nov-16 06:09N 40°36' W 074°12'0 0.0
2017-Nov-16 05:54N 40°36' W 074°12'0 0.0
2017-Nov-16 05:30N 40°36' W 074°12'0 0.0
2017-Nov-16 05:00N 40°36' W 074°12'0 0.0
2017-Nov-16 04:30N 40°36' W 074°12'0 0.0
2017-Nov-16 04:00N 40°36' W 074°12'0 0.0
2017-Nov-16 03:30N 40°36' W 074°12'0 0.0
2017-Nov-16 03:00N 40°36' W 074°12'0 0.0
2017-Nov-16 02:30N 40°36' W 074°12'0 0.0
2017-Nov-16 02:00N 40°36' W 074°12'2 3.4
2017-Nov-16 01:31N 40°35' W 074°13'3 5.7
2017-Nov-16 00:59N 40°33' W 074°15'4 3.6
2017-Nov-15 23:55N 40°30' W 074°11'4 9.4
2017-Nov-15 23:30N 40°29' W 074°06'5 9.3
2017-Nov-15 22:59N 40°29' W 073°60'610.0
2017-Nov-15 22:21N 40°27' W 073°52'2 6.0
2017-Nov-15 22:00N 40°27' W 073°49'3 6.1
2017-Nov-15 21:29N 40°27' W 073°45'510.3
2017-Nov-15 21:00N 40°28' W 073°39'1 0.9
2017-Nov-15 19:38N 40°29' W 073°38'0 0.0
2017-Nov-15 18:32N 40°29' W 073°38'0 0.0
2017-Nov-15 14:35N 40°29' W 073°38'0 0.1
2017-Nov-15 14:20N 40°29' W 073°38'0 0.0
2017-Nov-15 13:59N 40°29' W 073°38'0 0.0
2017-Nov-15 12:41N 40°29' W 073°38'0 0.0
2017-Nov-15 08:38N 40°29' W 073°38'0 0.0
2017-Nov-15 08:23N 40°29' W 073°38'0 0.1
2017-Nov-15 07:56N 40°29' W 073°38'0 0.0
2017-Nov-15 07:29N 40°29' W 073°38'0 0.0
2017-Nov-15 06:50N 40°29' W 073°38'0 0.0
2017-Nov-15 06:29N 40°29' W 073°38'0 0.0
2017-Nov-15 05:56N 40°29' W 073°38'0 0.0
2017-Nov-15 04:02N 40°29' W 073°38'0 0.3
2017-Nov-15 03:59N 40°29' W 073°38'0 0.0
2017-Nov-15 03:29N 40°29' W 073°38'0 0.0
2017-Nov-15 02:44N 40°29' W 073°38'0 0.0
2017-Nov-15 01:47N 40°29' W 073°38'0 0.0
2017-Nov-15 01:11N 40°29' W 073°38'0 0.0
2017-Nov-15 00:47N 40°29' W 073°38'0 0.0
2017-Nov-15 00:20N 40°29' W 073°38'0 0.0
2017-Nov-14 22:41N 40°29' W 073°38'0 0.0
2017-Nov-14 19:29N 40°29' W 073°38'0 0.0
2017-Nov-14 14:59N 40°29' W 073°38'0 0.0
2017-Nov-14 10:17N 40°29' W 073°38'0 0.0
2017-Nov-14 09:47N 40°29' W 073°38'0 0.0
2017-Nov-14 09:29N 40°29' W 073°38'0 0.0
2017-Nov-14 05:11N 40°29' W 073°38'0 0.0
2017-Nov-14 04:35N 40°29' W 073°38'0 0.0
2017-Nov-14 04:05N 40°29' W 073°38'0 0.0
2017-Nov-14 03:17N 40°29' W 073°38'0 0.0
2017-Nov-14 02:47N 40°29' W 073°38'0 0.0
2017-Nov-14 02:29N 40°29' W 073°38'0 0.0
2017-Nov-13 01:53N 40°29' W 073°37'0 0.0
2017-Nov-12 19:56N 40°29' W 073°38'0 0.2
2017-Nov-12 19:30N 40°29' W 073°38'3 7.0
2017-Nov-12 19:00N 40°29' W 073°42'510.6
2017-Nov-12 18:30N 40°27' W 073°49'5 9.0
2017-Nov-12 18:00N 40°29' W 073°55'510.6
2017-Nov-12 17:30N 40°32' W 074°01'4 8.8
2017-Nov-12 17:00N 40°36' W 074°02'0 0.3
2017-Nov-12 16:28N 40°36' W 074°02'0 0.0
2017-Nov-12 15:55N 40°36' W 074°02'0 0.0
2017-Nov-12 15:28N 40°36' W 074°02'0 0.0
2017-Nov-12 14:58N 40°36' W 074°02'0 0.0
2017-Nov-12 14:28N 40°36' W 074°02'0 0.0
2017-Nov-12 13:58N 40°36' W 074°02'0 0.0
2017-Nov-12 13:28N 40°36' W 074°02'0 0.0
2017-Nov-12 12:58N 40°36' W 074°02'0 0.0
2017-Nov-12 12:28N 40°36' W 074°02'0 0.0
2017-Nov-12 11:58N 40°36' W 074°02'0 0.0
2017-Nov-12 11:28N 40°36' W 074°02'0 0.0
2017-Nov-12 10:55N 40°36' W 074°02'0 0.1
2017-Nov-12 10:28N 40°36' W 074°02'0 0.1
2017-Nov-12 09:58N 40°36' W 074°02'0 0.2
2017-Nov-12 09:28N 40°36' W 074°02'0 0.2
2017-Nov-12 08:58N 40°36' W 074°02'0 0.1
2017-Nov-12 08:28N 40°36' W 074°02'0 0.0
2017-Nov-12 07:55N 40°36' W 074°02'0 0.0
2017-Nov-12 07:28N 40°36' W 074°02'0 0.1
2017-Nov-12 06:58N 40°36' W 074°02'0 0.0
2017-Nov-12 06:28N 40°36' W 074°02'0 0.0
2017-Nov-12 05:58N 40°36' W 074°02'1 2.3
2017-Nov-12 05:31N 40°35' W 074°02'5 9.9
2017-Nov-12 05:00N 40°30' W 074°03'4 8.0
2017-Nov-12 04:30N 40°30' W 074°08'6 7.6
2017-Nov-12 03:45N 40°31' W 074°15'1 5.4
2017-Nov-12 03:30N 40°32' W 074°15'1 0.0
2017-Nov-11 02:16N 40°33' W 074°15'5 3.5
2017-Nov-11 00:51N 40°30' W 074°09'4 8.5
2017-Nov-11 00:26N 40°29' W 074°05'4 9.9
2017-Nov-11 00:00N 40°29' W 073°59'4 7.4
2017-Nov-10 23:25N 40°29' W 073°54'513.2
2017-Nov-10 23:01N 40°31' W 073°60'714.1
2017-Nov-10 22:30N 40°38' W 074°03'1 1.8
2017-Nov-10 21:58N 40°39' W 074°03'0 0.0
2017-Nov-10 21:28N 40°39' W 074°03'0 0.0
2017-Nov-10 20:58N 40°39' W 074°03'0 0.0
2017-Nov-10 20:28N 40°39' W 074°03'0 0.0
2017-Nov-10 19:58N 40°39' W 074°03'0 0.1
2017-Nov-10 19:28N 40°39' W 074°03'1 2.5
2017-Nov-10 19:00N 40°39' W 074°04'4 7.3
2017-Nov-10 18:30N 40°39' W 074°09'3 5.1
2017-Nov-10 18:00N 40°38' W 074°12'2 1.9
2017-Nov-10 17:07N 40°36' W 074°12'0 0.0
2017-Nov-10 16:43N 40°36' W 074°12'0 0.0
2017-Nov-10 16:25N 40°36' W 074°12'0 0.0
2017-Nov-10 15:49N 40°36' W 074°12'0 0.0
2017-Nov-10 15:25N 40°36' W 074°12'0 0.0
2017-Nov-10 14:55N 40°36' W 074°12'0 0.0
2017-Nov-10 14:25N 40°36' W 074°12'0 0.0
2017-Nov-10 13:49N 40°36' W 074°12'0 0.0
2017-Nov-10 13:13N 40°36' W 074°12'0 0.0
2017-Nov-10 11:43N 40°36' W 074°12'0 0.0
2017-Nov-10 11:19N 40°36' W 074°12'0 0.0
2017-Nov-10 08:49N 40°36' W 074°12'0 0.0
2017-Nov-10 03:13N 40°36' W 074°12'0 0.0
2017-Nov-10 02:55N 40°36' W 074°12'0 0.0
2017-Nov-10 02:13N 40°36' W 074°12'0 0.0
2017-Nov-10 01:55N 40°36' W 074°12'0 0.0
2017-Nov-10 00:31N 40°36' W 074°12'0 0.0
2017-Nov-09 14:19N 40°36' W 074°12'0 0.0
2017-Nov-09 13:55N 40°36' W 074°12'0 0.9
2017-Nov-09 13:30N 40°36' W 074°12'2 4.6
2017-Nov-09 12:59N 40°33' W 074°14'1 2.0
2017-Nov-09 12:31N 40°34' W 074°13'3 5.3
2017-Nov-09 12:00N 40°37' W 074°12'3 5.5
2017-Nov-09 11:31N 40°39' W 074°10'3 6.1
2017-Nov-09 11:01N 40°39' W 074°06'1 0.4
2017-Nov-09 08:52N 40°39' W 074°05'0 0.0
2017-Nov-09 08:28N 40°39' W 074°05'0 0.0
2017-Nov-09 07:46N 40°39' W 074°05'0 0.0
2017-Nov-09 07:19N 40°39' W 074°05'0 0.0
2017-Nov-09 06:58N 40°39' W 074°05'0 0.0
2017-Nov-09 06:28N 40°39' W 074°05'0 0.0
2017-Nov-09 05:58N 40°39' W 074°05'0 0.0
2017-Nov-09 05:28N 40°39' W 074°05'0 0.0
2017-Nov-09 04:58N 40°39' W 074°05'0 0.0
2017-Nov-09 04:10N 40°39' W 074°05'0 0.0
2017-Nov-09 03:58N 40°39' W 074°05'0 0.0
2017-Nov-09 03:28N 40°39' W 074°05'0 0.0
2017-Nov-09 02:58N 40°39' W 074°05'0 0.0
2017-Nov-09 02:22N 40°39' W 074°05'0 0.0
2017-Nov-09 01:58N 40°39' W 074°05'0 0.0
2017-Nov-09 01:10N 40°39' W 074°05'0 0.0
2017-Nov-09 00:52N 40°39' W 074°05'0 0.0
2017-Nov-09 00:28N 40°39' W 074°05'0 0.0
2017-Nov-08 23:52N 40°39' W 074°05'0 0.0
2017-Nov-08 23:22N 40°39' W 074°05'0 0.0
2017-Nov-08 22:58N 40°39' W 074°05'0 0.0
2017-Nov-08 22:25N 40°39' W 074°05'0 0.0
2017-Nov-08 21:58N 40°39' W 074°05'0 0.0
2017-Nov-08 21:28N 40°39' W 074°05'0 0.0
2017-Nov-08 20:58N 40°39' W 074°05'0 0.0
2017-Nov-08 20:28N 40°39' W 074°05'0 0.0
2017-Nov-08 19:43N 40°39' W 074°05'0 0.0
2017-Nov-08 19:28N 40°39' W 074°05'0 0.0
2017-Nov-08 18:58N 40°39' W 074°05'0 0.0
2017-Nov-08 18:22N 40°39' W 074°05'0 0.0
2017-Nov-08 17:58N 40°39' W 074°05'0 0.0
2017-Nov-08 17:28N 40°39' W 074°05'0 0.0
2017-Nov-08 16:58N 40°39' W 074°05'  

Dump ship's entire track history